Time;durP1;ratioP1;P1;durP2;ratioP2;P2;SDS_P1;SDS_P2;PMS_P1;PMS_P2;Temp;Humidity;BMP_temperature;BMP_pressure;BME280_temperature;BME280_humidity;BME280_pressure;Samples;Min_cycle;Max_cycle;Signal;HPM_P1;HPM_P2
2023/03/23 00:01:40;;;;;;;27.52;10.93;;;;;;;;;;10521848;28;20039;-75
2023/03/23 00:07:03;;;;;;;12.75;6.78;;;;;;;;;;10546426;28;20034;-75
2023/03/23 00:12:33;;;;;;;14.30;8.00;;;;;;;;;;10527386;28;20032;-74
2023/03/23 00:18:02;;;;;;;18.75;8.32;;;;;;;;;;10539817;28;20028;-76
2023/03/23 00:23:24;;;;;;;13.18;7.50;;;;;;;;;;10540195;28;20027;-76
2023/03/23 00:28:46;;;;;;;12.57;7.32;;;;;;;;;;10526008;28;20036;-76
2023/03/23 00:34:07;;;;;;;16.52;8.25;;;;;;;;;;10528299;28;20347;-75
2023/03/23 00:39:28;;;;;;;25.42;10.07;;;;;;;;;;10517912;28;20047;-75
2023/03/23 00:44:49;;;;;;;24.55;9.55;;;;;;;;;;10519800;28;20036;-76
2023/03/23 00:50:12;;;;;;;21.10;8.32;;;;;;;;;;10522704;28;20507;-76
2023/03/23 00:55:33;;;;;;;16.05;8.15;;;;;;;;;;10519600;28;20058;-76
2023/03/23 01:00:56;;;;;;;18.02;8.85;;;;;;;;;;10511360;28;20028;-75
2023/03/23 01:06:17;;;;;;;16.98;8.55;;;;;;;;;;10532439;27;20031;-75
2023/03/23 01:11:38;;;;;;;17.65;8.55;;;;;;;;;;10524919;28;20032;-76
2023/03/23 01:16:59;;;;;;;21.75;9.85;;;;;;;;;;10525987;28;20358;-76
2023/03/23 01:22:20;;;;;;;17.15;8.63;;;;;;;;;;10521971;28;20039;-76
2023/03/23 01:27:41;;;;;;;22.30;10.30;;;;;;;;;;10501924;28;20044;-75
2023/03/23 01:33:02;;;;;;;18.67;9.18;;;;;;;;;;10517156;28;20626;-75
2023/03/23 01:38:23;;;;;;;25.25;10.45;;;;;;;;;;10521190;28;20245;-76
2023/03/23 01:44:03;;;;;;;20.20;9.43;;;;;;;;;;10516367;28;20035;-76
2023/03/23 01:49:27;;;;;;;19.67;9.73;;;;;;;;;;10520966;28;20028;-76
2023/03/23 01:54:48;;;;;;;10.57;7.55;;;;;;;;;;10503632;28;20060;-76
2023/03/23 02:00:14;;;;;;;15.68;9.13;;;;;;;;;;10474596;28;20071;-74
2023/03/23 02:05:39;;;;;;;11.40;7.00;;;;;;;;;;10483675;28;20499;-77
2023/03/23 02:11:00;;;;;;;11.18;7.45;;;;;;;;;;10495051;28;20039;-77
2023/03/23 02:16:24;;;;;;;16.05;9.30;;;;;;;;;;10463892;28;20029;-78
2023/03/23 02:21:58;;;;;;;13.18;8.48;;;;;;;;;;10493230;28;20033;-77
2023/03/23 02:27:37;;;;;;;15.00;8.73;;;;;;;;;;10483468;28;20051;-77
2023/03/23 02:33:17;;;;;;;16.58;8.75;;;;;;;;;;10478497;28;20070;-77
2023/03/23 02:38:42;;;;;;;20.48;10.18;;;;;;;;;;10470672;28;20020;-77
2023/03/23 02:44:04;;;;;;;25.83;10.60;;;;;;;;;;10456710;28;20036;-77
2023/03/23 02:49:27;;;;;;;16.25;8.40;;;;;;;;;;10478216;28;20032;-77
2023/03/23 02:54:49;;;;;;;15.98;8.10;;;;;;;;;;10500878;28;20265;-77
2023/03/23 03:00:14;;;;;;;17.85;8.82;;;;;;;;;;10519741;28;20035;-77
2023/03/23 03:05:59;;;;;;;30.92;11.68;;;;;;;;;;10516176;28;20044;-77
2023/03/23 03:11:25;;;;;;;22.90;9.57;;;;;;;;;;10480240;28;20702;-77
2023/03/23 03:16:53;;;;;;;15.48;8.15;;;;;;;;;;10505983;28;20040;-77
2023/03/23 03:22:14;;;;;;;20.08;9.15;;;;;;;;;;10510362;28;20032;-77
2023/03/23 03:27:35;;;;;;;32.08;12.25;;;;;;;;;;10515227;28;20054;-77
2023/03/23 03:32:57;;;;;;;25.00;10.93;;;;;;;;;;10500590;28;20040;-77
2023/03/23 03:38:18;;;;;;;12.32;8.18;;;;;;;;;;10503564;28;20024;-77
2023/03/23 03:43:38;;;;;;;18.45;8.68;;;;;;;;;;10536299;27;20057;-77
2023/03/23 03:49:00;;;;;;;16.10;8.27;;;;;;;;;;10507027;28;20032;-76
2023/03/23 03:54:21;;;;;;;22.27;9.18;;;;;;;;;;10479764;28;20390;-77
2023/03/23 03:59:43;;;;;;;16.83;8.40;;;;;;;;;;10463746;28;20039;-77
2023/03/23 04:05:05;;;;;;;12.35;7.18;;;;;;;;;;10485241;28;20058;-78
2023/03/23 04:10:27;;;;;;;19.20;8.30;;;;;;;;;;10483766;28;20501;-77
2023/03/23 04:15:48;;;;;;;14.38;7.90;;;;;;;;;;10486408;28;20032;-78
2023/03/23 04:21:09;;;;;;;22.75;8.55;;;;;;;;;;10488931;28;20056;-78
2023/03/23 04:26:30;;;;;;;17.77;8.15;;;;;;;;;;10476875;28;20032;-77
2023/03/23 04:31:52;;;;;;;12.60;6.00;;;;;;;;;;10476711;28;20415;-78
2023/03/23 04:37:13;;;;;;;11.25;4.95;;;;;;;;;;10497288;28;20047;-78
2023/03/23 04:42:34;;;;;;;20.67;7.88;;;;;;;;;;10497356;28;20028;-78
2023/03/23 04:47:57;;;;;;;11.38;5.22;;;;;;;;;;10505949;28;20362;-78
2023/03/23 04:53:18;;;;;;;14.98;6.13;;;;;;;;;;10502231;28;20495;-78
2023/03/23 04:58:40;;;;;;;12.50;5.50;;;;;;;;;;10541114;28;20077;-78
2023/03/23 05:04:02;;;;;;;14.68;6.50;;;;;;;;;;10509069;28;20032;-78
2023/03/23 05:09:22;;;;;;;14.23;6.53;;;;;;;;;;10530897;28;20028;-77
2023/03/23 05:14:43;;;;;;;17.25;7.22;;;;;;;;;;10527842;28;20035;-77
2023/03/23 05:20:08;;;;;;;13.80;5.80;;;;;;;;;;10518001;28;20403;-78
2023/03/23 05:25:28;;;;;;;18.02;6.65;;;;;;;;;;10515978;28;20043;-78
2023/03/23 05:30:49;;;;;;;9.15;5.47;;;;;;;;;;10518687;28;20040;-78
2023/03/23 05:36:13;;;;;;;20.20;7.53;;;;;;;;;;10520446;28;20032;-78
2023/03/23 05:41:33;;;;;;;16.00;6.93;;;;;;;;;;10515513;28;20031;-78
2023/03/23 05:46:55;;;;;;;19.98;6.95;;;;;;;;;;10496946;28;21344;-78
2023/03/23 05:52:15;;;;;;;17.27;6.05;;;;;;;;;;10509508;28;20702;-77
2023/03/23 05:57:36;;;;;;;17.95;7.90;;;;;;;;;;10514332;28;20056;-77
2023/03/23 06:02:57;;;;;;;26.67;8.60;;;;;;;;;;10521716;28;20043;-76
2023/03/23 06:08:18;;;;;;;10.90;5.75;;;;;;;;;;10509396;28;20040;-77
2023/03/23 06:13:39;;;;;;;18.45;7.88;;;;;;;;;;10531222;28;20044;-76
2023/03/23 06:19:01;;;;;;;14.82;6.68;;;;;;;;;;10509377;28;20024;-76
2023/03/23 06:24:22;;;;;;;19.27;6.95;;;;;;;;;;10522700;28;20032;-75
2023/03/23 06:29:43;;;;;;;11.63;6.43;;;;;;;;;;10526235;28;20063;-76
2023/03/23 06:35:04;;;;;;;12.02;6.13;;;;;;;;;;10521009;28;20027;-78
2023/03/23 06:40:25;;;;;;;25.63;7.53;;;;;;;;;;10511704;28;20035;-79
2023/03/23 06:45:46;;;;;;;19.08;6.85;;;;;;;;;;10531233;28;20043;-78
2023/03/23 06:51:07;;;;;;;13.27;6.07;;;;;;;;;;10530496;28;20044;-78
2023/03/23 06:56:28;;;;;;;15.80;6.82;;;;;;;;;;10521907;28;20630;-78
2023/03/23 07:01:49;;;;;;;17.08;6.97;;;;;;;;;;10503784;28;20040;-78
2023/03/23 07:07:10;;;;;;;17.30;6.70;;;;;;;;;;10531127;28;20032;-78
2023/03/23 07:12:32;;;;;;;16.60;7.28;;;;;;;;;;10514615;28;20028;-78
2023/03/23 07:17:55;;;;;;;11.98;5.72;;;;;;;;;;10506098;28;20051;-77
2023/03/23 07:23:16;;;;;;;13.15;6.55;;;;;;;;;;10518429;28;20384;-77
2023/03/23 07:28:38;;;;;;;15.45;6.90;;;;;;;;;;10526173;28;20036;-78
2023/03/23 07:33:58;;;;;;;16.10;6.97;;;;;;;;;;10529419;28;20035;-78
2023/03/23 07:39:19;;;;;;;11.20;6.65;;;;;;;;;;10530763;28;20496;-79
2023/03/23 07:44:40;;;;;;;8.90;5.60;;;;;;;;;;10545335;28;20039;-78
2023/03/23 07:50:01;;;;;;;8.20;5.10;;;;;;;;;;10549465;28;20035;-79
2023/03/23 07:55:24;;;;;;;7.30;4.85;;;;;;;;;;10538984;28;20044;-78
2023/03/23 08:00:48;;;;;;;8.57;5.05;;;;;;;;;;10502715;28;20050;-78
2023/03/23 08:06:09;;;;;;;5.88;4.63;;;;;;;;;;10493488;28;20036;-76
2023/03/23 08:11:30;;;;;;;8.70;4.93;;;;;;;;;;10486053;28;20037;-76
2023/03/23 08:16:51;;;;;;;6.97;4.78;;;;;;;;;;10478534;28;20039;-76
2023/03/23 08:22:13;;;;;;;9.20;5.30;;;;;;;;;;10483327;28;20029;-76
2023/03/23 08:27:34;;;;;;;13.52;6.07;;;;;;;;;;10498293;28;20534;-75
2023/03/23 08:32:56;;;;;;;19.25;7.30;;;;;;;;;;10468496;28;20060;-76
2023/03/23 08:38:17;;;;;;;11.48;6.03;;;;;;;;;;10509990;28;20040;-76
2023/03/23 08:43:39;;;;;;;10.80;6.07;;;;;;;;;;10454162;28;20032;-76
2023/03/23 08:49:00;;;;;;;14.75;6.68;;;;;;;;;;10473858;28;20049;-76
2023/03/23 08:54:21;;;;;;;15.27;5.82;;;;;;;;;;10501605;28;20039;-76
2023/03/23 08:59:42;;;;;;;13.07;5.63;;;;;;;;;;10518638;28;20488;-76
2023/03/23 09:05:04;;;;;;;27.05;8.40;;;;;;;;;;10513011;28;20417;-77
2023/03/23 09:10:30;;;;;;;16.65;7.03;;;;;;;;;;10519809;28;20036;-77
2023/03/23 09:15:51;;;;;;;8.15;5.10;;;;;;;;;;10529859;28;20039;-76
2023/03/23 09:21:13;;;;;;;12.23;5.85;;;;;;;;;;10516105;28;20410;-76
2023/03/23 09:26:35;;;;;;;10.20;6.68;;;;;;;;;;10529464;28;20055;-76
2023/03/23 09:31:55;;;;;;;16.95;5.40;;;;;;;;;;10503143;28;20047;-76
2023/03/23 09:37:17;;;;;;;13.23;5.75;;;;;;;;;;10500298;28;20032;-75
2023/03/23 09:42:46;;;;;;;14.30;6.85;;;;;;;;;;10503581;28;20524;-75
2023/03/23 09:48:13;;;;;;;8.18;4.30;;;;;;;;;;10504743;28;20036;-76
2023/03/23 09:53:39;;;;;;;10.75;4.28;;;;;;;;;;10513461;28;20492;-76
2023/03/23 09:59:02;;;;;;;10.98;4.63;;;;;;;;;;10490184;28;20036;-76
2023/03/23 10:04:37;;;;;;;11.20;4.80;;;;;;;;;;10493790;28;20036;-76
2023/03/23 10:10:01;;;;;;;9.90;4.78;;;;;;;;;;10502430;28;20043;-76
2023/03/23 10:15:27;;;;;;;9.48;5.00;;;;;;;;;;10491543;28;20021;-76
2023/03/23 10:20:53;;;;;;;16.63;6.47;;;;;;;;;;10484054;28;20892;-81
2023/03/23 10:26:32;;;;;;;6.13;3.97;;;;;;;;;;10516912;28;20040;-77
2023/03/23 10:31:58;;;;;;;12.63;5.20;;;;;;;;;;10514441;28;20036;-77
2023/03/23 10:37:31;;;;;;;9.32;4.72;;;;;;;;;;10516885;28;20055;-77
2023/03/23 10:42:52;;;;;;;14.13;6.00;;;;;;;;;;10523668;28;20485;-77
2023/03/23 10:48:30;;;;;;;10.82;5.28;;;;;;;;;;10533583;28;20033;-78
2023/03/23 10:53:56;;;;;;;10.18;5.25;;;;;;;;;;10530189;28;20493;-79
2023/03/23 10:59:21;;;;;;;11.27;5.18;;;;;;;;;;10517205;28;20036;-79
2023/03/23 11:04:46;;;;;;;13.35;6.28;;;;;;;;;;10527128;28;20040;-78
2023/03/23 11:10:16;;;;;;;16.13;6.50;;;;;;;;;;10557446;27;20040;-79
2023/03/23 11:15:39;;;;;;;9.07;5.50;;;;;;;;;;10532033;28;20032;-79
2023/03/23 11:20:59;;;;;;;12.85;5.72;;;;;;;;;;10526919;28;20055;-79
2023/03/23 11:26:28;;;;;;;8.80;4.82;;;;;;;;;;10532220;28;20036;-79
2023/03/23 11:32:05;;;;;;;13.02;5.07;;;;;;;;;;10527904;28;20032;-80
2023/03/23 11:37:32;;;;;;;13.65;5.78;;;;;;;;;;10539667;28;20025;-79
2023/03/23 11:42:53;;;;;;;13.13;5.15;;;;;;;;;;10516282;28;20036;-78
2023/03/23 11:48:25;;;;;;;13.85;6.45;;;;;;;;;;10512609;28;20040;-78
2023/03/23 11:53:49;;;;;;;16.15;6.13;;;;;;;;;;10512375;27;20401;-79
2023/03/23 11:59:11;;;;;;;14.20;5.55;;;;;;;;;;10530328;28;20501;-78
2023/03/23 12:04:35;;;;;;;13.00;6.05;;;;;;;;;;10505091;28;20036;-79
2023/03/23 12:10:03;;;;;;;9.77;4.97;;;;;;;;;;10525462;28;20037;-78
2023/03/23 12:15:23;;;;;;;11.25;5.10;;;;;;;;;;10526567;28;20028;-78
2023/03/23 12:20:48;;;;;;;11.63;5.50;;;;;;;;;;10514184;28;20029;-77
2023/03/23 12:26:09;;;;;;;10.38;5.45;;;;;;;;;;10505509;28;20079;-78
2023/03/23 12:31:37;;;;;;;20.45;7.32;;;;;;;;;;10504720;28;20052;-78
2023/03/23 12:37:08;;;;;;;15.38;6.03;;;;;;;;;;10478073;28;20044;-77
2023/03/23 12:42:29;;;;;;;16.08;6.18;;;;;;;;;;10495161;28;20032;-74
2023/03/23 12:47:50;;;;;;;14.98;6.38;;;;;;;;;;10481695;28;20036;-72
2023/03/23 12:53:14;;;;;;;16.25;6.43;;;;;;;;;;10478740;28;20568;-73
2023/03/23 12:58:40;;;;;;;15.73;6.43;;;;;;;;;;10503884;28;20051;-74
2023/03/23 13:04:07;;;;;;;17.65;7.15;;;;;;;;;;10488701;28;20442;-69
2023/03/23 13:09:34;;;;;;;15.82;5.28;;;;;;;;;;10503977;28;20480;-70
2023/03/23 13:15:05;;;;;;;12.43;4.95;;;;;;;;;;10511802;28;20510;-73
2023/03/23 13:20:36;;;;;;;14.75;5.72;;;;;;;;;;10495906;28;20033;-71
2023/03/23 13:26:01;;;;;;;13.05;5.32;;;;;;;;;;10499387;28;20393;-70
2023/03/23 13:31:29;;;;;;;12.82;4.85;;;;;;;;;;10511889;27;20039;-72
2023/03/23 13:37:05;;;;;;;10.23;4.95;;;;;;;;;;10492122;28;20043;-70
2023/03/23 13:42:26;;;;;;;14.00;5.25;;;;;;;;;;10493470;28;20041;-71
2023/03/23 13:47:48;;;;;;;13.45;5.32;;;;;;;;;;10510875;28;20036;-74
2023/03/23 13:53:14;;;;;;;13.80;5.80;;;;;;;;;;10493189;28;20032;-76
2023/03/23 13:58:44;;;;;;;22.08;7.50;;;;;;;;;;10475062;28;20041;-75
2023/03/23 14:04:06;;;;;;;7.90;5.03;;;;;;;;;;10495036;28;20028;-74
2023/03/23 14:09:30;;;;;;;13.30;5.40;;;;;;;;;;10461718;28;20044;-75
2023/03/23 14:14:55;;;;;;;16.70;6.10;;;;;;;;;;10506082;28;20041;-76
2023/03/23 14:20:26;;;;;;;9.15;5.53;;;;;;;;;;10482436;28;20036;-76
2023/03/23 14:25:54;;;;;;;18.45;6.32;;;;;;;;;;10495540;28;20021;-75
2023/03/23 14:31:26;;;;;;;9.32;5.10;;;;;;;;;;10482308;28;20029;-76
2023/03/23 14:36:47;;;;;;;16.75;5.93;;;;;;;;;;10525876;28;20057;-75
2023/03/23 14:42:12;;;;;;;16.27;5.80;;;;;;;;;;10496570;28;20033;-75
2023/03/23 14:47:35;;;;;;;11.88;5.22;;;;;;;;;;10516406;28;20028;-75
2023/03/23 14:52:57;;;;;;;12.40;5.13;;;;;;;;;;10516790;28;20074;-74
2023/03/23 14:58:20;;;;;;;17.65;6.13;;;;;;;;;;10556411;28;20051;-74
2023/03/23 15:03:49;;;;;;;10.57;5.75;;;;;;;;;;10553672;28;20058;-75
2023/03/23 15:09:15;;;;;;;8.25;4.45;;;;;;;;;;10557373;28;20032;-75
2023/03/23 15:14:56;;;;;;;12.15;5.15;;;;;;;;;;10554398;28;20039;-75
2023/03/23 15:20:20;;;;;;;17.70;6.68;;;;;;;;;;10550933;28;20089;-73
2023/03/23 15:25:47;;;;;;;11.60;5.15;;;;;;;;;;10518347;28;20048;-74
2023/03/23 15:31:08;;;;;;;19.67;7.32;;;;;;;;;;10512008;28;20052;-74
2023/03/23 15:36:31;;;;;;;16.58;5.38;;;;;;;;;;10527561;28;20028;-73
2023/03/23 15:41:52;;;;;;;15.48;6.50;;;;;;;;;;10519931;28;20431;-74
2023/03/23 15:47:16;;;;;;;14.93;5.60;;;;;;;;;;10520777;28;20036;-74
2023/03/23 15:52:37;;;;;;;19.35;6.78;;;;;;;;;;10518581;28;20038;-74
2023/03/23 15:57:58;;;;;;;20.85;7.13;;;;;;;;;;10505155;28;20036;-74
2023/03/23 16:03:31;;;;;;;22.70;7.50;;;;;;;;;;10504348;28;20047;-74
2023/03/23 16:08:55;;;;;;;20.75;7.72;;;;;;;;;;10515277;28;20073;-73
2023/03/23 16:14:16;;;;;;;21.23;6.82;;;;;;;;;;10522725;28;20032;-74
2023/03/23 16:19:37;;;;;;;19.25;6.53;;;;;;;;;;10531218;28;20040;-74
2023/03/23 16:24:57;;;;;;;13.00;5.72;;;;;;;;;;10535776;28;20051;-74
2023/03/23 16:30:21;;;;;;;18.70;5.70;;;;;;;;;;10529606;28;20040;-74
2023/03/23 16:35:42;;;;;;;18.83;6.20;;;;;;;;;;10501670;28;20043;-74
2023/03/23 16:41:03;;;;;;;24.83;8.20;;;;;;;;;;10526562;27;20434;-74
2023/03/23 16:46:24;;;;;;;22.67;7.78;;;;;;;;;;10514191;28;20080;-74
2023/03/23 16:51:46;;;;;;;20.35;7.00;;;;;;;;;;10499917;28;20043;-74
2023/03/23 16:57:07;;;;;;;26.13;8.00;;;;;;;;;;10509861;28;20048;-74
2023/03/23 17:02:28;;;;;;;20.42;7.57;;;;;;;;;;10517776;27;20067;-74
2023/03/23 17:07:49;;;;;;;29.90;8.07;;;;;;;;;;10510002;27;20039;-75
2023/03/23 17:13:10;;;;;;;18.58;6.63;;;;;;;;;;10496688;28;20036;-74
2023/03/23 17:18:31;;;;;;;22.33;8.57;;;;;;;;;;10498562;28;20047;-75
2023/03/23 17:23:53;;;;;;;23.17;7.60;;;;;;;;;;10513946;28;20040;-74
2023/03/23 17:29:14;;;;;;;22.88;8.20;;;;;;;;;;10510156;28;20036;-74
2023/03/23 17:34:35;;;;;;;28.58;9.23;;;;;;;;;;10516518;28;20663;-75
2023/03/23 17:39:56;;;;;;;25.45;8.20;;;;;;;;;;10524232;28;20024;-74
2023/03/23 17:45:16;;;;;;;26.05;9.10;;;;;;;;;;10522636;28;20043;-74
2023/03/23 17:50:37;;;;;;;24.48;8.70;;;;;;;;;;10506061;28;20062;-73
2023/03/23 17:55:58;;;;;;;17.95;7.40;;;;;;;;;;10489315;28;20051;-75
2023/03/23 18:01:19;;;;;;;23.30;9.18;;;;;;;;;;10527157;28;20046;-75
2023/03/23 18:06:40;;;;;;;17.05;7.43;;;;;;;;;;10500254;28;20028;-75
2023/03/23 18:12:01;;;;;;;21.33;8.38;;;;;;;;;;10503811;28;20028;-75
2023/03/23 18:17:22;;;;;;;19.45;9.05;;;;;;;;;;10524954;28;20043;-72
2023/03/23 18:22:43;;;;;;;30.48;10.30;;;;;;;;;;10508592;28;20047;-73
2023/03/23 18:28:05;;;;;;;17.83;8.18;;;;;;;;;;10501373;28;20040;-72
2023/03/23 18:33:26;;;;;;;14.60;7.60;;;;;;;;;;10533197;28;20073;-73
2023/03/23 18:38:47;;;;;;;18.15;7.72;;;;;;;;;;10544505;28;20028;-73
2023/03/23 18:44:08;;;;;;;17.48;8.23;;;;;;;;;;10553344;27;20510;-73
2023/03/23 18:49:30;;;;;;;19.60;7.93;;;;;;;;;;10531034;28;20040;-73
2023/03/23 18:54:52;;;;;;;14.25;7.00;;;;;;;;;;10526926;28;20059;-72
2023/03/23 19:00:13;;;;;;;15.90;7.88;;;;;;;;;;10499915;28;20474;-73
2023/03/23 19:05:35;;;;;;;12.15;7.32;;;;;;;;;;10473856;28;20055;-73
2023/03/23 19:11:00;;;;;;;19.20;8.35;;;;;;;;;;10480830;28;20040;-72
2023/03/23 19:16:21;;;;;;;13.45;7.10;;;;;;;;;;10468437;28;20028;-72
2023/03/23 19:21:42;;;;;;;16.10;7.78;;;;;;;;;;10479006;28;20033;-73
2023/03/23 19:27:03;;;;;;;17.70;8.07;;;;;;;;;;10491356;28;20040;-73
2023/03/23 19:32:24;;;;;;;16.17;7.43;;;;;;;;;;10493203;28;20032;-75
2023/03/23 19:37:46;;;;;;;14.70;7.35;;;;;;;;;;10485094;28;20043;-73
2023/03/23 19:43:07;;;;;;;15.25;7.32;;;;;;;;;;10482717;28;20044;-74
2023/03/23 19:48:29;;;;;;;13.82;7.65;;;;;;;;;;10492012;28;20334;-74
2023/03/23 19:53:50;;;;;;;15.25;6.90;;;;;;;;;;10482759;28;20040;-73
2023/03/23 19:59:14;;;;;;;21.73;8.43;;;;;;;;;;10485014;28;20567;-73
2023/03/23 20:04:35;;;;;;;14.35;7.40;;;;;;;;;;10522912;27;20516;-73
2023/03/23 20:09:56;;;;;;;20.10;7.95;;;;;;;;;;10493910;28;20930;-73
2023/03/23 20:15:16;;;;;;;15.98;7.40;;;;;;;;;;10475325;28;20515;-72
2023/03/23 20:20:37;;;;;;;19.40;7.97;;;;;;;;;;10485270;28;20029;-73
2023/03/23 20:25:59;;;;;;;17.15;6.72;;;;;;;;;;10470562;28;20032;-74
2023/03/23 20:31:25;;;;;;;14.38;7.15;;;;;;;;;;10475207;28;20039;-74
2023/03/23 20:36:48;;;;;;;18.48;7.32;;;;;;;;;;10475574;28;20030;-74
2023/03/23 20:42:10;;;;;;;22.83;7.65;;;;;;;;;;10471656;28;20482;-74
2023/03/23 20:47:31;;;;;;;16.58;6.75;;;;;;;;;;10487459;28;20032;-74
2023/03/23 20:52:52;;;;;;;14.40;6.55;;;;;;;;;;10477645;28;20405;-74
2023/03/23 20:58:13;;;;;;;25.67;9.20;;;;;;;;;;10508782;28;20059;-74
2023/03/23 21:03:36;;;;;;;16.95;7.18;;;;;;;;;;10512405;28;20400;-73
2023/03/23 21:08:57;;;;;;;25.15;9.20;;;;;;;;;;10501314;28;20036;-74
2023/03/23 21:14:19;;;;;;;19.88;7.50;;;;;;;;;;10511945;28;20035;-74
2023/03/23 21:19:40;;;;;;;16.85;7.03;;;;;;;;;;10516892;28;20036;-74
2023/03/23 21:25:01;;;;;;;16.70;7.43;;;;;;;;;;10514981;28;20070;-74
2023/03/23 21:30:22;;;;;;;17.67;7.97;;;;;;;;;;10513640;28;20043;-74
2023/03/23 21:35:43;;;;;;;25.70;8.38;;;;;;;;;;10490431;28;20044;-74
2023/03/23 21:41:09;;;;;;;28.23;10.02;;;;;;;;;;10485233;28;20035;-73
2023/03/23 21:46:31;;;;;;;17.20;7.78;;;;;;;;;;10501379;28;20024;-74
2023/03/23 21:51:52;;;;;;;16.85;7.18;;;;;;;;;;10496689;28;20055;-73
2023/03/23 21:57:13;;;;;;;15.82;7.45;;;;;;;;;;10468870;28;20509;-74
2023/03/23 22:02:34;;;;;;;13.30;7.75;;;;;;;;;;10473424;28;20445;-74
2023/03/23 22:07:55;;;;;;;17.27;7.65;;;;;;;;;;10459095;28;20043;-73
2023/03/23 22:13:16;;;;;;;15.75;7.10;;;;;;;;;;10453631;28;20040;-73
2023/03/23 22:18:38;;;;;;;26.13;9.15;;;;;;;;;;10443678;28;20032;-73
2023/03/23 22:23:59;;;;;;;14.95;6.20;;;;;;;;;;10462765;28;20051;-73
2023/03/23 22:29:20;;;;;;;18.90;8.32;;;;;;;;;;10463817;28;20382;-73
2023/03/23 22:34:41;;;;;;;12.48;5.85;;;;;;;;;;10491933;28;20029;-74
2023/03/23 22:40:05;;;;;;;13.30;7.40;;;;;;;;;;10482147;28;20029;-73
2023/03/23 22:45:26;;;;;;;18.55;7.65;;;;;;;;;;10459041;28;20031;-73
2023/03/23 22:50:48;;;;;;;16.10;7.50;;;;;;;;;;10466715;28;20049;-74
2023/03/23 22:56:09;;;;;;;18.83;7.35;;;;;;;;;;10474057;28;20409;-73
2023/03/23 23:01:30;;;;;;;15.60;7.22;;;;;;;;;;10513433;28;20365;-74
2023/03/23 23:06:52;;;;;;;24.58;9.20;;;;;;;;;;10510569;28;20137;-74
2023/03/23 23:12:13;;;;;;;16.20;7.80;;;;;;;;;;10505729;28;20036;-73
2023/03/23 23:17:37;;;;;;;16.90;7.95;;;;;;;;;;10517163;28;20047;-72
2023/03/23 23:22:59;;;;;;;15.18;7.35;;;;;;;;;;10509882;28;20035;-72
2023/03/23 23:28:20;;;;;;;15.55;7.30;;;;;;;;;;10520303;28;20052;-72
2023/03/23 23:33:41;;;;;;;10.90;7.05;;;;;;;;;;10508027;28;20404;-73
2023/03/23 23:39:04;;;;;;;19.65;7.78;;;;;;;;;;10522980;28;20031;-73
2023/03/23 23:44:25;;;;;;;22.15;8.65;;;;;;;;;;10519668;28;20404;-73
2023/03/23 23:49:47;;;;;;;18.92;7.97;;;;;;;;;;10529138;27;20039;-73
2023/03/23 23:55:09;;;;;;;16.23;7.20;;;;;;;;;;10520648;28;20067;-73
